Time;durP1;ratioP1;P1;durP2;ratioP2;P2;SDS_P1;SDS_P2;PMS_P1;PMS_P2;Temp;Humidity;BMP_temperature;BMP_pressure;BME280_temperature;BME280_humidity;BME280_pressure;Samples;Min_cycle;Max_cycle;Signal;HPM_P1;HPM_P2
2021/11/16 00:01:20;;;;;;;75.75;25.35;;;;;;;6.39;86.04;102727.47;5027625;28;20194;-81
2021/11/16 00:03:46;;;;;;;65.53;24.08;;;;;;;6.36;86.50;102724.84;5038374;28;20063;-81
2021/11/16 00:06:11;;;;;;;66.28;23.50;;;;;;;6.34;86.63;102725.69;5042847;28;20306;-81
2021/11/16 00:08:37;;;;;;;61.72;23.15;;;;;;;6.35;87.08;102721.38;5042910;28;20033;-81
2021/11/16 00:11:04;;;;;;;69.00;25.38;;;;;;;6.36;87.34;102717.88;5060893;28;20064;-81
2021/11/16 00:13:29;;;;;;;65.18;23.40;;;;;;;6.40;87.58;102713.56;5042846;28;20265;-81
2021/11/16 00:15:55;;;;;;;59.17;22.92;;;;;;;6.36;86.51;102706.63;5061175;28;20031;-81
2021/11/16 00:18:26;;;;;;;62.88;22.88;;;;;;;6.28;85.23;102710.03;5027341;28;20072;-81
2021/11/16 00:20:52;;;;;;;70.72;24.35;;;;;;;6.25;86.04;102707.41;5043081;28;20323;-81
2021/11/16 00:23:19;;;;;;;63.72;23.27;;;;;;;6.23;86.63;102701.31;5025402;28;20035;-81
2021/11/16 00:25:45;;;;;;;63.85;23.58;;;;;;;6.22;87.11;102699.59;5043282;28;20041;-81
2021/11/16 00:28:11;;;;;;;56.60;22.65;;;;;;;6.21;86.79;102696.97;5018410;28;20257;-81
2021/11/16 00:30:38;;;;;;;58.13;23.40;;;;;;;6.19;86.94;102694.34;5021489;28;20062;-81
2021/11/16 00:33:04;;;;;;;56.97;22.92;;;;;;;6.17;86.36;102698.69;5042907;28;20096;-81
2021/11/16 00:35:30;;;;;;;62.28;23.95;;;;;;;6.15;86.36;102697.81;5042616;28;20039;-81
2021/11/16 00:37:56;;;;;;;64.43;24.77;;;;;;;6.11;85.76;102690.81;5043405;28;20036;-81
2021/11/16 00:40:21;;;;;;;61.97;23.58;;;;;;;6.06;86.13;102690.78;5036366;28;20339;-81
2021/11/16 00:42:48;;;;;;;58.63;22.85;;;;;;;6.05;86.17;102694.25;5028808;28;20224;-81
2021/11/16 00:45:14;;;;;;;68.07;24.65;;;;;;;6.02;85.77;102695.94;5026510;28;20056;-81
2021/11/16 00:47:40;;;;;;;67.75;24.67;;;;;;;6.00;86.16;102685.53;5042620;28;20040;-81
2021/11/16 00:50:06;;;;;;;68.22;24.92;;;;;;;5.98;86.03;102689.00;5027225;28;20033;-81
2021/11/16 00:52:31;;;;;;;60.55;24.10;;;;;;;6.03;87.15;102684.69;5060359;28;20048;-81
2021/11/16 00:54:57;;;;;;;56.00;25.60;;;;;;;6.04;87.35;102691.63;5026701;28;20336;-81
2021/11/16 00:57:23;;;;;;;67.82;25.02;;;;;;;6.09;87.95;102682.13;5060209;28;20048;-81
2021/11/16 00:59:48;;;;;;;50.40;21.15;;;;;;;6.24;88.05;102682.25;5028927;28;20037;-81
2021/11/16 01:02:15;;;;;;;54.88;21.33;;;;;;;6.44;88.39;102685.00;5019645;28;20067;-81
2021/11/16 01:04:41;;;;;;;51.35;18.60;;;;;;;6.63;88.99;102687.69;5009950;28;20115;-81
2021/11/16 01:07:07;;;;;;;63.13;25.48;;;;;;;6.77;89.94;102699.06;5026973;28;20045;-81
2021/11/16 01:09:32;;;;;;;65.95;27.05;;;;;;;6.83;90.80;102698.22;5041217;28;20048;-81
2021/11/16 01:11:58;;;;;;;62.75;25.35;;;;;;;6.88;91.41;102705.19;5042589;28;20048;-81
2021/11/16 01:14:23;;;;;;;68.28;27.77;;;;;;;6.97;91.64;102701.75;5054090;28;20363;-81
2021/11/16 01:16:49;;;;;;;67.43;27.67;;;;;;;7.04;92.21;102697.41;5042227;28;20032;-81
2021/11/16 01:19:15;;;;;;;77.63;28.40;;;;;;;6.98;91.50;102702.59;5007038;28;20125;-81
2021/11/16 01:21:40;;;;;;;67.07;26.33;;;;;;;6.86;89.64;102698.22;5060313;28;20044;-81
2021/11/16 01:24:06;;;;;;;68.57;26.73;;;;;;;6.84;89.40;102702.53;5042406;28;20344;-81
2021/11/16 01:26:32;;;;;;;67.32;26.63;;;;;;;6.87;90.19;102699.94;5025762;28;20096;-81
2021/11/16 01:28:59;;;;;;;63.65;25.48;;;;;;;6.89;90.53;102686.09;5026388;28;20355;-82
2021/11/16 01:31:25;;;;;;;65.45;26.65;;;;;;;6.97;91.07;102696.53;5059446;28;20090;-81
2021/11/16 01:33:56;;;;;;;67.65;27.38;;;;;;;7.00;91.66;102691.31;5038772;28;20348;-81
2021/11/16 01:36:21;;;;;;;64.50;27.08;;;;;;;6.98;91.68;102690.44;5058826;28;20036;-81
2021/11/16 01:38:48;;;;;;;63.05;24.75;;;;;;;6.90;90.34;102690.41;5008839;28;20062;-81
2021/11/16 01:41:14;;;;;;;65.63;24.58;;;;;;;6.76;87.49;102673.88;5026014;28;20032;-81
2021/11/16 01:43:39;;;;;;;60.50;25.27;;;;;;;6.72;87.67;102680.78;5041434;28;20056;-81
2021/11/16 01:46:08;;;;;;;51.53;22.15;;;;;;;6.79;89.14;102676.50;5040758;28;20021;-81
2021/11/16 01:48:34;;;;;;;67.30;25.75;;;;;;;6.88;90.45;102676.53;5024948;28;20435;-81
2021/11/16 01:51:00;;;;;;;67.10;26.10;;;;;;;6.92;91.43;102673.06;5037777;28;20100;-82
2021/11/16 01:53:25;;;;;;;68.47;26.83;;;;;;;6.89;90.98;102673.06;5024362;28;20075;-82
2021/11/16 01:55:51;;;;;;;65.22;24.85;;;;;;;6.88;90.93;102671.31;5025413;28;20037;-81
2021/11/16 01:58:16;;;;;;;66.95;24.70;;;;;;;6.80;89.75;102667.78;5041675;28;20032;-81
2021/11/16 02:04:04;;;;;;;55.88;24.08;;;;;;;6.81;90.36;102663.47;5033884;28;20216;-81
2021/11/16 02:06:32;;;;;;;65.85;26.95;;;;;;;6.80;90.44;102662.59;5026272;28;20214;-81
2021/11/16 02:08:58;;;;;;;55.58;23.17;;;;;;;6.88;91.03;102662.66;5039646;28;20060;-81
2021/11/16 02:11:24;;;;;;;63.42;24.77;;;;;;;6.98;91.57;102655.72;5057024;28;20031;-81
2021/11/16 02:13:49;;;;;;;63.22;26.48;;;;;;;6.93;91.38;102655.72;5024569;28;20040;-81
2021/11/16 02:16:15;;;;;;;58.53;24.95;;;;;;;6.84;89.78;102653.94;5007439;28;20233;-81
2021/11/16 02:18:40;;;;;;;59.45;24.55;;;;;;;6.78;88.79;102650.44;5039312;28;20044;-81
2021/11/16 02:21:06;;;;;;;55.75;22.63;;;;;;;6.78;89.23;102648.69;5023532;28;20117;-81
2021/11/16 02:23:32;;;;;;;49.97;22.67;;;;;;;6.88;90.33;102654.81;5024758;28;20378;-81
2021/11/16 02:25:58;;;;;;;64.50;25.75;;;;;;;6.85;90.59;102642.66;5063435;28;20225;-81
2021/11/16 02:28:23;;;;;;;65.97;25.42;;;;;;;6.77;89.06;102643.47;5061257;28;20055;-81
2021/11/16 02:30:49;;;;;;;59.00;23.70;;;;;;;6.71;88.56;102640.00;5029720;28;20045;-81
2021/11/16 02:33:15;;;;;;;66.63;25.60;;;;;;;6.70;88.80;102640.84;5029279;28;20099;-81
2021/11/16 02:35:40;;;;;;;66.13;25.83;;;;;;;6.75;89.39;102643.50;5029126;28;20060;-81
2021/11/16 02:38:05;;;;;;;67.47;25.40;;;;;;;6.74;89.60;102641.75;5029041;28;20033;-81
2021/11/16 02:40:31;;;;;;;62.03;25.30;;;;;;;6.71;89.21;102631.31;5062326;28;20032;-81
2021/11/16 02:42:56;;;;;;;66.68;26.30;;;;;;;6.73;89.39;102629.56;5045316;28;20045;-81
2021/11/16 02:45:22;;;;;;;71.45;26.70;;;;;;;6.76;89.59;102633.94;5062534;28;20041;-81
2021/11/16 02:47:48;;;;;;;66.03;26.38;;;;;;;6.76;89.78;102626.13;5029382;28;20386;-81
2021/11/16 02:50:13;;;;;;;71.22;25.75;;;;;;;6.67;88.38;102621.75;5028274;28;20343;-81
2021/11/16 02:52:39;;;;;;;56.65;25.48;;;;;;;6.59;87.50;102632.13;5028447;28;20033;-81
2021/11/16 02:55:05;;;;;;;69.32;25.85;;;;;;;6.59;87.98;102634.75;5012227;28;20513;-81
2021/11/16 02:57:30;;;;;;;66.22;25.77;;;;;;;6.59;88.51;102633.88;5041298;28;20077;-81
2021/11/16 02:59:56;;;;;;;62.58;26.48;;;;;;;6.52;87.73;102639.03;5042071;28;20126;-81
2021/11/16 03:02:21;;;;;;;54.95;24.60;;;;;;;6.46;87.36;102639.00;5041128;28;20041;-81
2021/11/16 03:04:47;;;;;;;61.95;24.98;;;;;;;6.43;87.32;102640.72;5074641;28;20056;-78
2021/11/16 03:07:14;;;;;;;68.43;26.80;;;;;;;6.41;87.51;102645.06;5024536;28;20033;-78
2021/11/16 03:09:50;;;;;;;64.50;25.48;;;;;;;6.47;88.32;102640.72;5024603;28;20275;-78
2021/11/16 03:12:16;;;;;;;60.50;25.90;;;;;;;6.49;88.79;102640.75;5018622;28;20034;-78
2021/11/16 03:14:41;;;;;;;62.65;24.75;;;;;;;6.42;87.44;102626.84;5008353;28;20087;-81
2021/11/16 03:17:07;;;;;;;62.47;25.95;;;;;;;6.38;87.19;102632.03;5024647;28;20282;-81
2021/11/16 03:19:33;;;;;;;62.00;25.30;;;;;;;6.33;87.13;102626.78;5024767;28;20033;-81
2021/11/16 03:21:59;;;;;;;62.28;25.80;;;;;;;6.28;87.35;102626.75;5041418;28;20087;-81
2021/11/16 03:24:27;;;;;;;70.45;26.90;;;;;;;6.25;87.35;102629.34;5008501;28;20036;-81
2021/11/16 03:26:53;;;;;;;59.13;25.13;;;;;;;6.21;87.41;102630.19;5040818;28;20030;-81
2021/11/16 03:29:23;;;;;;;60.45;25.05;;;;;;;6.19;87.50;102631.06;5040972;28;20198;-81
2021/11/16 03:31:51;;;;;;;62.28;24.98;;;;;;;6.13;87.13;102635.34;5040948;28;20053;-81
2021/11/16 03:34:16;;;;;;;64.13;25.60;;;;;;;6.14;87.68;102633.63;5041410;28;20407;-81
2021/11/16 03:36:42;;;;;;;64.43;25.75;;;;;;;6.13;87.68;102631.84;5008344;28;20037;-81
2021/11/16 03:39:07;;;;;;;61.60;25.45;;;;;;;6.11;87.74;102625.78;5040517;28;20029;-81
2021/11/16 03:41:33;;;;;;;64.47;24.40;;;;;;;6.10;87.87;102630.13;5007700;28;20257;-81
2021/11/16 03:43:58;;;;;;;62.45;25.30;;;;;;;6.09;87.85;102624.91;5041054;28;20045;-81
2021/11/16 03:46:24;;;;;;;67.40;26.40;;;;;;;6.12;88.20;102635.34;5036138;28;20325;-81
2021/11/16 03:48:49;;;;;;;66.43;25.67;;;;;;;6.11;87.84;102630.97;5041806;28;20056;-81
2021/11/16 03:51:15;;;;;;;69.03;28.52;;;;;;;6.09;87.71;102638.81;5040672;28;20033;-81
2021/11/16 03:53:40;;;;;;;68.22;27.25;;;;;;;6.06;87.47;102640.50;5008005;28;20067;-81
2021/11/16 03:56:06;;;;;;;62.20;26.08;;;;;;;6.05;87.66;102642.22;5041010;28;20056;-81
2021/11/16 03:58:31;;;;;;;71.90;29.08;;;;;;;6.06;87.80;102640.50;5024461;28;20108;-81
2021/11/16 04:00:59;;;;;;;69.28;27.40;;;;;;;6.03;87.44;102638.75;5042672;28;20033;-81
2021/11/16 04:03:25;;;;;;;70.82;27.13;;;;;;;6.00;87.31;102640.44;5041649;28;20037;-81
2021/11/16 04:05:52;;;;;;;68.70;28.70;;;;;;;5.98;87.13;102639.56;5008082;28;20033;-81
2021/11/16 04:08:17;;;;;;;67.70;26.73;;;;;;;5.95;87.16;102646.50;5010615;28;20041;-81
2021/11/16 04:10:43;;;;;;;67.40;27.08;;;;;;;5.96;87.35;102647.34;5029553;28;20143;-81
2021/11/16 04:13:08;;;;;;;68.28;25.98;;;;;;;5.99;87.72;102651.72;5007481;28;20037;-81
2021/11/16 04:15:34;;;;;;;68.25;26.95;;;;;;;5.99;87.62;102643.94;5057129;28;20449;-81
2021/11/16 04:18:00;;;;;;;65.78;26.88;;;;;;;5.99;87.43;102651.72;5040225;28;20021;-81
2021/11/16 04:20:36;;;;;;;57.10;24.70;;;;;;;6.02;87.75;102638.72;5040354;28;20359;-81
2021/11/16 04:23:02;;;;;;;68.90;27.90;;;;;;;6.13;88.47;102642.25;5056082;28;20044;-81
2021/11/16 04:25:28;;;;;;;69.28;27.25;;;;;;;6.21;88.99;102642.34;5041645;28;20107;-81
2021/11/16 04:27:54;;;;;;;72.30;28.40;;;;;;;6.22;89.42;102638.84;5041148;28;20033;-81
2021/11/16 04:30:20;;;;;;;74.15;28.88;;;;;;;6.15;88.40;102643.19;5023847;28;20025;-81
2021/11/16 04:32:46;;;;;;;69.55;27.23;;;;;;;6.13;87.97;102644.88;5055030;28;20045;-81
2021/11/16 04:35:12;;;;;;;60.47;25.42;;;;;;;6.09;87.60;102643.13;5041363;28;20334;-81
2021/11/16 04:37:39;;;;;;;67.80;28.35;;;;;;;6.06;87.72;102640.50;5023466;28;20047;-81
2021/11/16 04:40:09;;;;;;;73.55;27.80;;;;;;;6.07;87.64;102643.09;5023925;28;20037;-81
2021/11/16 04:42:35;;;;;;;67.25;27.02;;;;;;;6.07;87.65;102637.03;5007770;28;20040;-81
2021/11/16 04:45:00;;;;;;;73.28;28.15;;;;;;;6.16;88.44;102631.88;5039792;28;20277;-81
2021/11/16 04:47:34;;;;;;;76.30;29.45;;;;;;;6.18;88.93;102632.75;5023432;28;20047;-81
2021/11/16 04:50:11;;;;;;;67.65;25.30;;;;;;;6.26;89.12;102636.31;5039546;28;20049;-81
2021/11/16 04:53:11;;;;;;;62.10;26.50;;;;;;;6.35;89.52;102643.31;5039409;28;20029;-81
2021/11/16 04:59:27;;;;;;;73.13;26.70;;;;;;;6.38;89.88;102637.22;5006430;28;20041;-81
2021/11/16 05:04:02;;;;;;;68.10;26.73;;;;;;;6.15;86.35;102625.81;5027023;28;20059;-81
2021/11/16 05:06:27;;;;;;;69.35;28.10;;;;;;;6.12;86.92;102627.53;5040809;28;20308;-81
2021/11/16 05:08:53;;;;;;;64.85;26.38;;;;;;;6.07;87.24;102621.44;5039340;28;20025;-81
2021/11/16 05:11:19;;;;;;;70.55;25.92;;;;;;;6.06;87.58;102625.75;5038864;28;20033;-81
2021/11/16 05:13:44;;;;;;;75.78;28.77;;;;;;;6.06;88.01;102622.31;5006784;28;20237;-81
2021/11/16 05:16:11;;;;;;;73.65;28.70;;;;;;;6.10;88.08;102621.47;5038936;28;20033;-81
2021/11/16 05:18:38;;;;;;;67.75;26.83;;;;;;;6.10;88.33;102618.84;5038922;28;20068;-81
2021/11/16 05:21:03;;;;;;;73.70;28.40;;;;;;;6.07;87.60;102616.22;5039740;28;20045;-81
2021/11/16 05:23:28;;;;;;;67.90;27.45;;;;;;;6.03;87.51;102614.47;5022996;28;20259;-81
2021/11/16 05:25:54;;;;;;;69.18;26.55;;;;;;;6.01;87.21;102616.19;5022507;28;20037;-81
2021/11/16 05:28:20;;;;;;;66.15;26.13;;;;;;;5.96;87.27;102616.16;5055832;28;20037;-81
2021/11/16 05:30:46;;;;;;;63.55;27.13;;;;;;;5.93;87.04;102619.56;5039415;28;20255;-81
2021/11/16 05:33:11;;;;;;;69.25;27.63;;;;;;;5.90;87.02;102610.88;5022304;28;20048;-81
2021/11/16 05:35:37;;;;;;;74.00;28.83;;;;;;;5.88;86.99;102610.00;5022224;28;20067;-81
2021/11/16 05:38:02;;;;;;;70.50;27.17;;;;;;;5.86;87.24;102610.00;5039280;28;20101;-81
2021/11/16 05:40:28;;;;;;;72.68;27.25;;;;;;;5.84;87.29;102619.50;5005655;28;20045;-81
2021/11/16 05:42:53;;;;;;;74.72;29.33;;;;;;;5.83;87.48;102617.75;5044478;28;20124;-81
2021/11/16 05:45:18;;;;;;;68.03;29.48;;;;;;;5.83;87.62;102622.09;5022168;28;20033;-81
2021/11/16 05:47:44;;;;;;;69.78;27.92;;;;;;;5.81;87.43;102622.09;5038882;28;20037;-81
2021/11/16 05:50:10;;;;;;;72.82;27.30;;;;;;;5.82;87.76;102620.34;5036921;28;20105;-81
2021/11/16 05:52:36;;;;;;;69.05;28.13;;;;;;;5.85;88.07;102617.78;5036319;28;20053;-81
2021/11/16 05:55:02;;;;;;;67.78;27.70;;;;;;;5.85;88.01;102618.63;5037659;28;20045;-81
2021/11/16 05:57:27;;;;;;;71.38;27.85;;;;;;;5.83;87.97;102612.56;5020738;28;20064;-81
2021/11/16 05:59:53;;;;;;;63.90;25.73;;;;;;;5.84;87.99;102610.81;5021520;28;20068;-81
2021/11/16 06:02:18;;;;;;;67.38;25.73;;;;;;;5.83;87.89;102609.09;5021006;28;20041;-81
2021/11/16 06:04:44;;;;;;;73.85;26.92;;;;;;;5.82;87.84;102613.44;5071105;28;20029;-81
2021/11/16 06:07:09;;;;;;;72.00;26.10;;;;;;;5.83;87.99;102616.91;5037154;28;20041;-81
2021/11/16 06:09:35;;;;;;;68.22;27.77;;;;;;;5.81;88.04;102611.69;5005431;28;20025;-81
2021/11/16 06:12:02;;;;;;;68.47;25.65;;;;;;;5.81;88.03;102610.81;5037983;28;20071;-81
2021/11/16 06:14:27;;;;;;;71.97;27.83;;;;;;;5.79;87.84;102613.41;5037541;28;20033;-81
2021/11/16 06:16:53;;;;;;;71.55;26.60;;;;;;;5.77;88.04;102616.00;5004742;28;20104;-81
2021/11/16 06:19:24;;;;;;;73.35;27.23;;;;;;;5.77;88.10;102608.19;5037497;28;20037;-81
2021/11/16 06:21:49;;;;;;;67.95;26.73;;;;;;;5.76;87.89;102605.56;5021793;28;20025;-82
2021/11/16 06:24:15;;;;;;;67.43;25.33;;;;;;;5.77;87.85;102607.31;5037515;28;20164;-81
2021/11/16 06:26:40;;;;;;;72.30;27.73;;;;;;;5.75;87.82;102596.06;5037641;28;20100;-81
2021/11/16 06:29:06;;;;;;;70.57;27.00;;;;;;;5.74;87.93;102602.94;5021488;28;20042;-81
2021/11/16 06:31:32;;;;;;;66.13;26.27;;;;;;;5.74;87.85;102599.50;5020520;28;20047;-81
2021/11/16 06:34:03;;;;;;;70.47;26.10;;;;;;;5.73;87.90;102593.44;5037688;28;20034;-81
2021/11/16 06:36:38;;;;;;;73.35;27.50;;;;;;;5.77;88.38;102599.53;5005641;28;20053;-81
2021/11/16 06:39:05;;;;;;;72.80;27.30;;;;;;;5.77;88.42;102589.13;5036996;28;20101;-81
2021/11/16 06:41:30;;;;;;;70.82;29.15;;;;;;;5.75;87.96;102594.31;5021320;28;20079;-81
2021/11/16 06:43:56;;;;;;;72.93;27.77;;;;;;;5.72;87.48;102596.88;5038242;28;20033;-81
2021/11/16 06:46:21;;;;;;;76.22;29.00;;;;;;;5.70;87.20;102590.78;5036624;28;20113;-81
2021/11/16 06:48:47;;;;;;;82.03;28.17;;;;;;;5.67;86.78;102595.97;5038551;28;20597;-81
2021/11/16 06:51:12;;;;;;;65.82;26.90;;;;;;;5.66;87.01;102596.84;5005305;28;20030;-81
2021/11/16 06:53:38;;;;;;;77.15;28.20;;;;;;;5.64;87.43;102595.06;5021635;28;20140;-81
2021/11/16 06:56:05;;;;;;;86.40;28.13;;;;;;;5.63;87.84;102588.16;5040199;28;20037;-81
2021/11/16 06:58:31;;;;;;;86.10;28.73;;;;;;;5.64;87.55;102592.47;5020375;28;20072;-81
2021/11/16 07:00:56;;;;;;;70.88;28.33;;;;;;;5.66;87.80;102595.97;5004594;28;20383;-81
2021/11/16 07:03:23;;;;;;;87.32;30.05;;;;;;;5.64;87.78;102597.66;5037709;28;20057;-81
2021/11/16 07:05:53;;;;;;;72.43;28.42;;;;;;;5.64;87.55;102600.28;5004522;28;20036;-81
2021/11/16 07:08:36;;;;;;;77.90;27.92;;;;;;;5.61;87.21;102593.31;5037395;28;20071;-81
2021/11/16 07:11:17;;;;;;;70.65;27.08;;;;;;;5.63;87.45;102593.34;5037779;28;20229;-81
2021/11/16 07:13:57;;;;;;;82.57;27.85;;;;;;;5.62;87.74;102595.09;5004949;28;20079;-81
2021/11/16 07:16:24;;;;;;;78.65;27.95;;;;;;;5.61;87.89;102597.66;5040759;28;20335;-81
2021/11/16 07:18:51;;;;;;;72.68;27.83;;;;;;;5.61;88.00;102589.88;5038081;28;20033;-81
2021/11/16 07:21:17;;;;;;;76.80;27.77;;;;;;;5.61;88.05;102593.31;5019600;28;20038;-81
2021/11/16 07:23:43;;;;;;;75.28;28.15;;;;;;;5.61;87.87;102595.06;5042113;28;20030;-81
2021/11/16 07:26:15;;;;;;;67.45;26.60;;;;;;;5.60;87.85;102596.78;5007263;28;20033;-81
2021/11/16 07:28:50;;;;;;;77.85;28.95;;;;;;;5.60;87.82;102596.78;5006077;28;20025;-81
2021/11/16 07:31:17;;;;;;;77.30;29.20;;;;;;;5.62;87.95;102592.50;5022792;28;20049;-81
2021/11/16 07:33:43;;;;;;;71.82;27.60;;;;;;;5.62;87.97;102591.59;5023308;28;20076;-81
2021/11/16 07:36:09;;;;;;;76.57;29.05;;;;;;;5.61;87.88;102595.06;5040552;28;20276;-81
2021/11/16 07:38:34;;;;;;;72.95;26.80;;;;;;;5.60;87.92;102599.38;5023964;28;20037;-81
2021/11/16 07:41:00;;;;;;;68.30;25.98;;;;;;;5.62;88.10;102599.38;5040169;28;20037;-81
2021/11/16 07:43:29;;;;;;;79.07;27.70;;;;;;;5.61;88.04;102598.53;5040732;28;20033;-81
2021/11/16 07:45:55;;;;;;;69.53;27.88;;;;;;;5.61;88.15;102589.88;5032723;28;20052;-81
2021/11/16 07:48:22;;;;;;;77.50;28.65;;;;;;;5.60;88.02;102596.78;5034532;28;20415;-81
2021/11/16 07:50:59;;;;;;;68.53;27.17;;;;;;;5.61;88.13;102603.72;5027982;28;20059;-81
2021/11/16 07:53:29;;;;;;;75.57;26.33;;;;;;;5.60;88.13;102604.56;5039064;28;20071;-81
2021/11/16 07:56:10;;;;;;;72.47;26.83;;;;;;;5.61;88.22;102600.28;5040031;28;20045;-81
2021/11/16 07:58:38;;;;;;;79.28;28.05;;;;;;;5.59;88.16;102605.44;5038487;28;20095;-82
2021/11/16 08:01:19;;;;;;;81.93;30.70;;;;;;;5.58;88.19;102599.38;5011529;28;20353;-81
2021/11/16 08:03:53;;;;;;;80.18;28.83;;;;;;;5.59;87.98;102602.84;5025530;28;20329;-81
2021/11/16 08:06:32;;;;;;;71.53;28.40;;;;;;;5.58;88.17;102601.09;5034338;28;20041;-82
2021/11/16 08:09:09;;;;;;;79.45;28.80;;;;;;;5.60;88.16;102603.72;5034915;28;20033;-82
2021/11/16 08:12:01;;;;;;;77.90;28.48;;;;;;;5.60;88.04;102603.72;5021579;28;20036;-82
2021/11/16 08:14:23;;;;;;;59.05;25.63;;;;;;;5.66;88.36;102590.78;5034572;28;20064;-81
2021/11/16 08:16:51;;;;;;;60.08;21.90;;;;;;;5.82;88.84;102587.44;5038252;28;20045;-81
2021/11/16 08:19:28;;;;;;;53.23;21.33;;;;;;;6.00;nan;102598.84;5023827;28;20327;-81
2021/11/16 08:21:56;;;;;;;70.10;27.33;;;;;;;6.09;89.84;102589.38;5036127;28;20308;-81
2021/11/16 08:24:24;;;;;;;71.68;28.17;;;;;;;6.19;89.95;102582.50;5035330;28;20049;-81
2021/11/16 08:26:50;;;;;;;74.40;27.75;;;;;;;6.24;90.15;102586.00;5018603;28;20062;-81
2021/11/16 08:29:42;;;;;;;80.53;30.58;;;;;;;6.31;90.62;102595.56;5034405;28;20332;-81
2021/11/16 08:32:16;;;;;;;83.63;30.60;;;;;;;6.26;89.96;102588.59;5033211;28;20053;-81
2021/11/16 08:34:44;;;;;;;76.93;30.13;;;;;;;6.26;90.19;102584.25;5035719;28;20068;-81
2021/11/16 08:37:10;;;;;;;83.78;29.42;;;;;;;6.28;90.39;102585.13;5018693;28;20033;-81
2021/11/16 08:39:43;;;;;;;82.57;28.90;;;;;;;6.32;90.30;102586.88;5036808;28;20037;-81
2021/11/16 08:42:29;;;;;;;62.72;23.20;;;;;;;6.45;90.76;102584.34;5033668;28;20045;-81
2021/11/16 08:45:09;;;;;;;82.57;28.25;;;;;;;6.51;91.54;102589.56;5020292;28;20045;-81
2021/11/16 08:47:52;;;;;;;81.50;28.58;;;;;;;6.44;90.62;102590.41;5032426;28;20101;-81
2021/11/16 08:50:22;;;;;;;77.05;27.38;;;;;;;6.34;89.05;102586.91;5028446;28;20033;-81
2021/11/16 08:52:47;;;;;;;78.10;27.45;;;;;;;6.25;87.96;102584.25;5033829;28;20221;-81
2021/11/16 08:55:18;;;;;;;72.07;26.83;;;;;;;6.17;87.96;102579.00;5035056;28;20045;-81
2021/11/16 08:57:45;;;;;;;77.28;29.13;;;;;;;6.11;87.69;102579.84;5020733;28;20065;-81
2021/11/16 09:00:34;;;;;;;81.22;27.70;;;;;;;6.06;87.82;102583.28;5036773;28;20051;-82
2021/11/16 09:03:05;;;;;;;71.15;27.15;;;;;;;6.01;87.82;102577.19;5015605;28;21024;-81
2021/11/16 09:05:32;;;;;;;63.97;25.38;;;;;;;5.96;87.85;102575.41;5026792;28;20037;-82
2021/11/16 09:08:01;;;;;;;70.72;27.45;;;;;;;5.93;87.89;102572.78;5017536;28;20029;-82
2021/11/16 09:10:31;;;;;;;72.85;27.85;;;;;;;5.89;88.05;102570.97;5019245;28;20079;-84
2021/11/16 09:12:57;;;;;;;69.32;25.50;;;;;;;5.87;87.98;102572.72;5026311;28;20053;-82
2021/11/16 09:15:38;;;;;;;68.55;26.63;;;;;;;5.84;88.08;102572.72;5035294;28;20095;-82
2021/11/16 09:18:29;;;;;;;67.72;26.73;;;;;;;5.83;88.21;102567.50;5035609;28;20025;-81
2021/11/16 09:21:08;;;;;;;73.45;26.98;;;;;;;5.82;88.26;102569.22;5018205;28;20400;-81
2021/11/16 09:23:35;;;;;;;66.72;26.58;;;;;;;5.82;88.22;102564.03;5036633;28;20052;-82
2021/11/16 09:26:11;;;;;;;69.97;27.45;;;;;;;5.81;88.21;102571.81;5010839;28;20033;-81
2021/11/16 09:28:39;;;;;;;74.60;26.90;;;;;;;5.79;88.04;102574.41;5029292;28;20029;-81
2021/11/16 09:31:22;;;;;;;73.47;27.98;;;;;;;5.76;88.00;102577.84;5001477;28;20055;-81
2021/11/16 09:33:48;;;;;;;65.85;24.58;;;;;;;5.76;88.10;102575.22;5020795;28;20280;-81
2021/11/16 09:36:25;;;;;;;76.18;26.65;;;;;;;5.75;88.28;102576.13;5003228;28;20038;-81
2021/11/16 09:38:56;;;;;;;73.03;25.65;;;;;;;5.75;88.36;102577.84;5036247;28;20277;-81
2021/11/16 09:41:28;;;;;;;64.82;24.67;;;;;;;5.74;88.21;102576.97;5019920;28;20033;-81
2021/11/16 09:44:05;;;;;;;69.93;25.65;;;;;;;5.73;88.43;102576.94;5033017;28;20104;-81
2021/11/16 09:46:31;;;;;;;67.07;26.00;;;;;;;5.73;88.35;102582.13;5001586;28;20044;-81
2021/11/16 09:49:01;;;;;;;69.45;25.58;;;;;;;5.74;88.66;102569.16;5031568;28;20037;-81
2021/11/16 09:51:26;;;;;;;66.28;26.15;;;;;;;5.75;88.84;102557.91;5017466;28;20411;-81
2021/11/16 09:54:08;;;;;;;76.28;26.13;;;;;;;5.75;88.67;102559.66;5005037;28;20044;-82
2021/11/16 09:56:34;;;;;;;68.38;26.02;;;;;;;5.74;88.52;102557.91;5037234;28;20048;-81
2021/11/16 09:59:00;;;;;;;80.22;27.30;;;;;;;5.73;88.32;102556.16;5039631;28;20132;-81
2021/11/16 10:01:28;;;;;;;69.32;26.73;;;;;;;5.72;88.24;102557.03;5023658;28;20083;-81
2021/11/16 10:04:07;;;;;;;75.60;26.95;;;;;;;5.72;88.33;102551.81;5010347;28;20029;-81
2021/11/16 10:06:33;;;;;;;70.85;25.95;;;;;;;5.71;88.67;102552.66;4988140;28;20049;-81
2021/11/16 10:08:59;;;;;;;64.50;26.65;;;;;;;5.73;89.13;102543.16;5053055;28;20239;-81
2021/11/16 10:11:25;;;;;;;70.88;26.80;;;;;;;5.77;89.29;102543.19;5022376;28;20060;-81
2021/11/16 10:13:50;;;;;;;72.90;27.75;;;;;;;5.81;89.32;102545.81;5006295;28;20083;-81
2021/11/16 10:16:16;;;;;;;76.32;28.70;;;;;;;5.81;89.21;102554.47;5027442;28;20754;-81
2021/11/16 10:18:41;;;;;;;72.95;27.92;;;;;;;5.80;89.19;102541.47;5024125;28;20029;-81
2021/11/16 10:21:08;;;;;;;84.07;27.83;;;;;;;5.78;88.95;102538.84;5041221;28;20221;-81
2021/11/16 10:23:35;;;;;;;82.70;28.65;;;;;;;5.77;88.77;102538.00;5039673;28;20028;-81
2021/11/16 10:26:01;;;;;;;78.88;29.38;;;;;;;5.75;88.77;102537.13;5024503;28;20036;-81
2021/11/16 10:28:27;;;;;;;77.20;28.88;;;;;;;5.76;88.99;102537.97;5016417;28;20348;-81
2021/11/16 10:30:57;;;;;;;77.05;27.25;;;;;;;5.76;88.95;102532.78;5037617;28;20374;-81
2021/11/16 10:33:24;;;;;;;74.15;28.65;;;;;;;5.73;88.51;102533.63;5040620;28;20052;-81
2021/11/16 10:35:56;;;;;;;72.82;28.10;;;;;;;5.72;88.36;102533.63;5037517;28;20032;-81
2021/11/16 10:38:30;;;;;;;76.95;27.58;;;;;;;5.69;88.20;102526.66;5050528;28;20036;-81
2021/11/16 10:40:57;;;;;;;72.03;26.67;;;;;;;5.69;88.54;102523.19;5035583;28;20037;-81
2021/11/16 10:43:22;;;;;;;77.70;28.23;;;;;;;5.69;88.78;102533.59;5003831;28;20042;-81
2021/11/16 10:45:49;;;;;;;69.07;26.83;;;;;;;5.68;88.61;102527.53;5026812;28;20040;-82
2021/11/16 10:48:18;;;;;;;69.10;26.15;;;;;;;5.69;88.92;102531.00;5032718;28;20029;-81
2021/11/16 10:50:45;;;;;;;67.68;25.85;;;;;;;5.69;88.92;102524.06;5012976;28;20224;-81
2021/11/16 10:53:21;;;;;;;69.07;26.05;;;;;;;5.71;89.23;102521.47;5029049;28;20071;-81
2021/11/16 10:55:53;;;;;;;72.88;28.02;;;;;;;5.73;89.17;102514.53;5045086;28;20498;-81
2021/11/16 10:58:46;;;;;;;71.47;26.80;;;;;;;5.73;88.99;102511.94;5037122;28;20117;-81
2021/11/16 11:01:19;;;;;;;69.82;25.73;;;;;;;5.73;89.19;102502.44;5019280;28;20051;-81
2021/11/16 11:03:55;;;;;;;74.30;27.98;;;;;;;5.74;89.09;102498.97;5028286;28;20073;-81
2021/11/16 11:06:22;;;;;;;73.60;27.60;;;;;;;5.74;89.17;102495.50;5028879;28;20048;-81
2021/11/16 11:08:48;;;;;;;69.05;25.98;;;;;;;5.74;89.19;102492.91;5011026;28;20052;-82
2021/11/16 11:11:18;;;;;;;73.00;27.20;;;;;;;5.75;89.01;102486.84;5044666;28;20078;-81
2021/11/16 11:13:58;;;;;;;67.65;26.13;;;;;;;5.74;89.21;102485.09;5045123;28;20066;-82
2021/11/16 11:16:24;;;;;;;63.47;25.40;;;;;;;5.75;89.21;102479.06;5031375;28;20044;-82
2021/11/16 11:18:49;;;;;;;67.20;26.98;;;;;;;5.78;89.36;102484.25;5044035;28;20032;-81
2021/11/16 11:21:29;;;;;;;72.03;27.02;;;;;;;5.79;89.14;102480.81;5027515;28;20083;-81
2021/11/16 11:24:01;;;;;;;72.13;26.60;;;;;;;5.82;89.76;102477.34;5044927;28;20040;-81
2021/11/16 11:26:38;;;;;;;71.40;26.85;;;;;;;5.82;89.37;102475.63;5044852;28;20048;-81
2021/11/16 11:29:23;;;;;;;75.60;25.92;;;;;;;5.80;89.24;102472.13;5045881;28;20032;-82
2021/11/16 11:31:55;;;;;;;76.78;26.38;;;;;;;5.79;89.23;102465.22;5029781;28;20304;-82